Time;durP1;ratioP1;P1;durP2;ratioP2;P2;SDS_P1;SDS_P2;PMS_P1;PMS_P2;Temp;Humidity;BMP_temperature;BMP_pressure;BME280_temperature;BME280_humidity;BME280_pressure;Samples;Min_cycle;Max_cycle;Signal;HPM_P1;HPM_P2
2024/01/02 00:00:21;;;;;;;6.40;1.88;;;5.10;72.40;;;;;;4936665;29;20345;-75
2024/01/02 00:02:46;;;;;;;1.75;0.80;;;5.10;72.60;;;;;;4936641;29;20031;-75
2024/01/02 00:05:12;;;;;;;4.50;1.42;;;5.10;71.50;;;;;;4936602;29;20028;-75
2024/01/02 00:07:37;;;;;;;4.90;1.20;;;5.20;71.10;;;;;;4936338;29;20115;-75
2024/01/02 00:10:04;;;;;;;3.80;0.88;;;5.30;71.10;;;;;;4936395;29;20035;-75
2024/01/02 00:12:30;;;;;;;4.25;0.85;;;5.30;70.40;;;;;;4936494;29;20497;-74
2024/01/02 00:14:55;;;;;;;2.90;0.65;;;5.50;69.00;;;;;;4936298;29;20042;-75
2024/01/02 00:17:21;;;;;;;1.60;0.50;;;5.60;68.30;;;;;;4936398;29;20027;-74
2024/01/02 00:19:46;;;;;;;2.17;0.55;;;5.70;67.40;;;;;;4936312;29;20031;-75
2024/01/02 00:22:12;;;;;;;1.90;0.30;;;5.90;66.50;;;;;;4934969;29;20028;-74
2024/01/02 00:24:38;;;;;;;1.27;0.40;;;6.00;66.00;;;;;;4936269;29;20038;-74
2024/01/02 00:27:04;;;;;;;1.83;0.50;;;6.20;65.60;;;;;;4936107;29;20593;-75
2024/01/02 00:29:29;;;;;;;4.22;0.40;;;6.20;65.50;;;;;;4936134;29;20044;-74
2024/01/02 00:31:55;;;;;;;4.82;0.60;;;6.10;65.60;;;;;;4934794;29;20038;-75
2024/01/02 00:34:20;;;;;;;1.40;0.30;;;6.10;65.70;;;;;;4935901;29;20103;-75
2024/01/02 00:36:46;;;;;;;2.80;0.55;;;6.20;65.50;;;;;;4935996;29;20477;-75
2024/01/02 00:39:11;;;;;;;1.15;0.40;;;6.20;65.60;;;;;;4934740;29;20024;-75
2024/01/02 00:41:37;;;;;;;1.13;0.40;;;6.20;65.80;;;;;;4935942;29;20023;-74
2024/01/02 00:44:03;;;;;;;2.65;0.68;;;6.20;65.80;;;;;;4935875;29;20102;-75
2024/01/02 00:46:29;;;;;;;1.30;0.40;;;6.20;65.70;;;;;;4935979;29;20048;-74
2024/01/02 00:48:55;;;;;;;1.77;0.50;;;6.20;65.80;;;;;;4935801;29;20039;-75
2024/01/02 00:51:21;;;;;;;3.10;0.60;;;6.20;65.80;;;;;;4935885;29;20028;-75
2024/01/02 00:53:46;;;;;;;2.72;0.60;;;6.20;65.70;;;;;;4935709;29;20031;-75
2024/01/02 00:56:12;;;;;;;1.95;0.45;;;6.20;65.60;;;;;;4935893;29;20036;-75
2024/01/02 00:58:37;;;;;;;1.58;0.35;;;6.20;66.00;;;;;;4935681;29;20099;-75
2024/01/02 01:01:03;;;;;;;1.83;0.60;;;6.20;65.90;;;;;;4935734;29;20070;-75
2024/01/02 01:03:29;;;;;;;1.63;0.40;;;6.20;65.80;;;;;;4935680;29;20039;-75
2024/01/02 01:05:54;;;;;;;2.70;0.55;;;6.20;65.70;;;;;;4935712;29;20167;-74
2024/01/02 01:08:20;;;;;;;1.13;0.38;;;6.20;65.60;;;;;;4940910;29;20642;-73
2024/01/02 01:10:45;;;;;;;1.80;0.22;;;6.30;65.60;;;;;;4942011;29;20106;-75
2024/01/02 01:13:11;;;;;;;4.50;0.52;;;6.20;65.50;;;;;;4941909;29;20027;-74
2024/01/02 01:15:38;;;;;;;1.95;0.38;;;6.20;65.50;;;;;;4941959;29;20497;-74
2024/01/02 01:18:03;;;;;;;2.17;0.50;;;6.20;65.50;;;;;;4941888;29;20464;-75
2024/01/02 01:20:29;;;;;;;2.72;0.60;;;6.20;65.60;;;;;;4941902;29;20031;-74
2024/01/02 01:22:54;;;;;;;0.60;0.30;;;6.20;65.40;;;;;;4942968;29;20327;-75
2024/01/02 01:25:20;;;;;;;2.80;0.40;;;6.30;65.70;;;;;;4940644;29;20393;-74
2024/01/02 01:27:46;;;;;;;1.13;0.40;;;6.20;65.70;;;;;;4941847;29;20095;-75
2024/01/02 01:30:11;;;;;;;1.67;0.50;;;6.20;65.80;;;;;;4941801;29;20039;-75
2024/01/02 01:32:37;;;;;;;1.08;0.30;;;6.30;65.70;;;;;;4941821;29;20540;-75
2024/01/02 01:35:03;;;;;;;1.13;0.25;;;6.30;65.50;;;;;;4941786;29;20028;-75
2024/01/02 01:37:29;;;;;;;1.42;0.45;;;6.30;65.70;;;;;;4941805;29;20103;-75
2024/01/02 01:39:56;;;;;;;1.35;0.38;;;6.30;65.50;;;;;;4941653;29;20532;-75
2024/01/02 01:42:22;;;;;;;1.65;0.32;;;6.40;65.20;;;;;;4941740;29;20051;-75
2024/01/02 01:44:48;;;;;;;1.45;0.30;;;6.40;64.90;;;;;;4941738;29;20056;-76
2024/01/02 01:47:13;;;;;;;1.33;0.30;;;6.40;64.80;;;;;;4941614;29;20028;-76
2024/01/02 01:49:39;;;;;;;1.63;0.20;;;6.50;64.80;;;;;;4941500;29;20051;-75
2024/01/02 01:52:06;;;;;;;1.35;0.25;;;6.50;64.80;;;;;;4941671;29;20071;-76
2024/01/02 01:54:32;;;;;;;1.70;0.35;;;6.50;64.50;;;;;;4940342;29;20054;-76
2024/01/02 01:56:58;;;;;;;2.97;0.50;;;6.60;65.40;;;;;;4941473;29;20031;-75
2024/01/02 01:59:24;;;;;;;2.90;0.20;;;6.50;64.70;;;;;;4941580;29;20028;-76
2024/01/02 02:01:50;;;;;;;1.65;0.20;;;6.50;64.90;;;;;;4941483;29;20385;-75
2024/01/02 02:04:16;;;;;;;1.88;0.40;;;6.60;64.80;;;;;;4941593;29;20111;-74
2024/01/02 02:06:42;;;;;;;0.20;0.20;;;6.60;64.70;;;;;;4941530;29;20544;-75
2024/01/02 02:09:08;;;;;;;1.30;0.40;;;6.60;64.60;;;;;;4941364;29;20139;-74
2024/01/02 02:11:35;;;;;;;1.80;0.32;;;6.60;64.80;;;;;;4941523;29;20094;-75
2024/01/02 02:14:02;;;;;;;0.80;0.30;;;6.60;64.90;;;;;;4941478;29;20501;-75
2024/01/02 02:16:28;;;;;;;0.40;0.20;;;6.60;64.90;;;;;;4941678;29;20023;-75
2024/01/02 02:18:54;;;;;;;1.50;0.38;;;6.60;65.10;;;;;;4939858;29;20028;-75
2024/01/02 02:21:20;;;;;;;0.85;0.20;;;6.60;65.20;;;;;;4938437;29;20493;-75
2024/01/02 02:23:45;;;;;;;2.15;0.40;;;6.60;65.40;;;;;;4937611;29;20090;-74
2024/01/02 02:26:11;;;;;;;1.55;0.28;;;6.60;65.80;;;;;;4938665;29;20034;-77
2024/01/02 02:28:37;;;;;;;0.93;0.20;;;6.60;65.80;;;;;;4939194;29;20366;-76
2024/01/02 02:31:02;;;;;;;1.13;0.35;;;6.60;66.00;;;;;;4939431;29;20464;-77
2024/01/02 02:33:29;;;;;;;0.15;0.10;;;6.70;65.80;;;;;;4938961;29;20438;-77
2024/01/02 02:35:55;;;;;;;0.88;0.20;;;6.70;65.70;;;;;;4939616;29;20023;-75
2024/01/02 02:38:21;;;;;;;1.10;0.43;;;6.70;65.80;;;;;;4938638;29;20032;-75
2024/01/02 02:40:46;;;;;;;0.30;0.20;;;6.70;65.80;;;;;;4938484;29;20052;-75
2024/01/02 02:43:12;;;;;;;0.20;0.10;;;6.70;65.60;;;;;;4938375;29;20040;-75
2024/01/02 02:45:37;;;;;;;1.70;0.20;;;6.70;65.40;;;;;;4938247;29;20083;-75
2024/01/02 02:48:03;;;;;;;0.50;0.25;;;6.80;65.40;;;;;;4938034;29;20107;-75
2024/01/02 02:50:29;;;;;;;0.55;0.17;;;6.80;65.00;;;;;;4936826;29;20067;-75
2024/01/02 02:52:54;;;;;;;0.40;0.10;;;6.80;64.80;;;;;;4938115;29;20032;-75
2024/01/02 02:55:20;;;;;;;0.45;0.20;;;6.80;64.90;;;;;;4937859;29;20082;-75
2024/01/02 02:57:45;;;;;;;1.50;0.38;;;6.80;64.80;;;;;;4937924;29;20457;-75
2024/01/02 03:00:12;;;;;;;0.60;0.30;;;6.80;65.00;;;;;;4937962;29;20110;-75
2024/01/02 03:02:37;;;;;;;0.75;0.22;;;6.80;64.50;;;;;;4937752;29;20103;-75
2024/01/02 03:05:03;;;;;;;0.57;0.20;;;6.80;64.50;;;;;;4937774;29;20461;-76
2024/01/02 03:07:29;;;;;;;0.43;0.20;;;6.80;65.10;;;;;;4937667;29;20672;-75
2024/01/02 03:09:55;;;;;;;0.73;0.20;;;6.80;65.30;;;;;;4936246;29;20044;-76
2024/01/02 03:12:20;;;;;;;1.25;0.10;;;6.80;65.80;;;;;;4937516;29;20060;-75
2024/01/02 03:14:46;;;;;;;0.80;0.20;;;6.70;65.70;;;;;;4937505;29;20054;-76
2024/01/02 03:17:12;;;;;;;0.75;0.20;;;6.80;66.40;;;;;;4937396;29;20075;-75
2024/01/02 03:19:38;;;;;;;4.78;0.30;;;6.70;66.90;;;;;;4936283;29;20555;-75
2024/01/02 03:22:04;;;;;;;1.73;0.30;;;6.60;67.80;;;;;;4937360;29;20031;-75
2024/01/02 03:24:30;;;;;;;1.45;0.20;;;6.60;69.00;;;;;;4936372;29;20110;-75
2024/01/02 03:26:56;;;;;;;1.65;0.10;;;6.50;69.40;;;;;;4946093;29;20055;-75
2024/01/02 03:29:21;;;;;;;0.38;0.20;;;6.50;70.10;;;;;;4937114;29;20489;-75
2024/01/02 03:31:47;;;;;;;0.45;0.20;;;6.40;70.40;;;;;;4936883;29;20023;-75
2024/01/02 03:34:12;;;;;;;1.30;0.28;;;6.40;71.60;;;;;;4938135;29;20087;-75
2024/01/02 03:36:38;;;;;;;1.63;0.17;;;6.30;71.80;;;;;;4937129;29;20031;-75
2024/01/02 03:39:04;;;;;;;0.20;0.20;;;6.30;72.20;;;;;;4937044;29;20054;-75
2024/01/02 03:41:30;;;;;;;0.85;0.20;;;6.20;72.70;;;;;;4919898;29;20040;-74
2024/01/02 03:43:55;;;;;;;1.85;0.32;;;6.20;72.60;;;;;;4937031;29;20028;-74
2024/01/02 03:46:21;;;;;;;1.33;0.30;;;6.10;72.70;;;;;;4936865;29;20361;-74
2024/01/02 03:48:46;;;;;;;1.92;0.20;;;6.10;74.70;;;;;;4935594;29;20098;-74
2024/01/02 03:51:12;;;;;;;1.85;0.35;;;6.10;74.10;;;;;;4938099;29;20024;-74
2024/01/02 03:53:38;;;;;;;1.20;0.40;;;6.00;74.50;;;;;;4936912;29;20027;-74
2024/01/02 03:56:04;;;;;;;2.30;0.60;;;6.00;74.20;;;;;;4936784;29;20055;-74
2024/01/02 03:58:30;;;;;;;3.75;0.57;;;5.90;75.40;;;;;;4936722;29;20024;-74
2024/01/02 04:00:56;;;;;;;3.50;0.60;;;5.80;75.60;;;;;;4936737;29;20024;-74
2024/01/02 04:03:22;;;;;;;3.90;0.98;;;5.80;75.40;;;;;;4936773;29;20024;-74
2024/01/02 04:05:48;;;;;;;1.70;0.88;;;5.80;77.40;;;;;;4936550;29;20504;-74
2024/01/02 04:08:14;;;;;;;3.00;0.77;;;5.70;77.20;;;;;;4936468;29;20055;-74
2024/01/02 04:10:40;;;;;;;1.50;0.93;;;5.60;76.90;;;;;;4936621;29;20134;-74
2024/01/02 04:13:06;;;;;;;3.33;1.05;;;5.60;77.30;;;;;;4936343;29;20102;-74
2024/01/02 04:15:32;;;;;;;0.73;0.40;;;5.50;77.80;;;;;;4935395;29;20031;-74
2024/01/02 04:17:57;;;;;;;1.63;0.47;;;5.50;77.70;;;;;;4936260;29;20051;-77
2024/01/02 04:20:23;;;;;;;1.85;0.73;;;5.60;78.10;;;;;;4936207;29;20461;-74
2024/01/02 04:22:54;;;;;;;1.23;0.32;;;5.70;77.50;;;;;;4936202;29;20028;-74
2024/01/02 04:25:20;;;;;;;1.98;0.50;;;5.70;77.40;;;;;;4936243;29;20035;-74
2024/01/02 04:27:46;;;;;;;1.45;0.50;;;5.70;79.00;;;;;;4936127;29;20055;-74
2024/01/02 04:30:12;;;;;;;1.25;0.40;;;5.70;78.70;;;;;;4936468;29;20255;-74
2024/01/02 04:32:37;;;;;;;0.45;0.30;;;5.70;78.50;;;;;;4936121;29;20024;-74
2024/01/02 04:35:03;;;;;;;0.50;0.30;;;5.70;78.50;;;;;;4936558;29;20055;-74
2024/01/02 04:37:29;;;;;;;4.20;0.40;;;5.80;77.90;;;;;;4937262;29;20024;-77
2024/01/02 04:39:55;;;;;;;1.65;0.20;;;5.90;77.80;;;;;;4940298;29;20031;-76
2024/01/02 04:42:21;;;;;;;1.13;0.45;;;5.90;77.80;;;;;;4935797;29;20461;-75
2024/01/02 04:44:46;;;;;;;0.63;0.22;;;5.90;78.50;;;;;;4935843;29;20038;-75
2024/01/02 04:47:12;;;;;;;0.50;0.30;;;6.00;77.40;;;;;;4935896;29;20028;-75
2024/01/02 04:49:37;;;;;;;0.28;0.25;;;6.10;77.70;;;;;;4934396;29;20036;-75
2024/01/02 04:52:03;;;;;;;0.73;0.25;;;6.10;78.30;;;;;;4935832;29;20113;-76
2024/01/02 04:54:29;;;;;;;0.65;0.30;;;6.10;78.50;;;;;;4935617;29;20386;-75
2024/01/02 04:56:54;;;;;;;0.52;0.45;;;6.10;78.50;;;;;;4935615;29;20441;-75
2024/01/02 04:59:20;;;;;;;2.33;0.30;;;6.00;79.10;;;;;;4935654;29;20473;-75
2024/01/02 05:01:45;;;;;;;0.25;0.20;;;6.00;78.70;;;;;;4935726;29;20055;-76
2024/01/02 05:04:11;;;;;;;0.68;0.30;;;6.00;77.50;;;;;;4934322;29;20031;-76
2024/01/02 05:06:36;;;;;;;2.75;0.47;;;6.00;78.40;;;;;;4936984;29;20050;-76
2024/01/02 05:09:02;;;;;;;2.25;0.20;;;6.00;79.20;;;;;;4935243;29;20047;-75
2024/01/02 05:11:28;;;;;;;1.05;0.20;;;6.10;77.40;;;;;;4935618;29;20032;-75
2024/01/02 05:13:53;;;;;;;0.22;0.13;;;6.10;78.70;;;;;;4935313;29;20024;-75
2024/01/02 05:16:19;;;;;;;3.42;0.55;;;6.10;78.60;;;;;;4934274;29;20027;-76
2024/01/02 05:18:44;;;;;;;0.40;0.20;;;6.00;79.50;;;;;;4935388;29;20024;-76
2024/01/02 05:21:10;;;;;;;0.10;0.10;;;6.00;79.10;;;;;;4935375;29;20059;-75
2024/01/02 05:23:36;;;;;;;0.47;0.20;;;6.00;79.10;;;;;;4935418;29;20024;-75
2024/01/02 05:26:02;;;;;;;0.22;0.10;;;6.00;79.60;;;;;;4935312;29;20027;-75
2024/01/02 05:28:29;;;;;;;0.40;0.10;;;6.00;79.60;;;;;;4935284;29;20032;-75
2024/01/02 05:30:54;;;;;;;0.73;0.20;;;5.90;79.00;;;;;;4935365;29;20027;-75
2024/01/02 05:33:20;;;;;;;0.22;0.20;;;6.00;79.70;;;;;;4934401;29;20028;-76
2024/01/02 05:35:45;;;;;;;0.65;0.30;;;6.00;79.50;;;;;;4935200;29;20039;-77
2024/01/02 05:38:11;;;;;;;0.20;0.20;;;6.00;79.40;;;;;;4935305;29;20150;-75
2024/01/02 05:40:36;;;;;;;0.28;0.28;;;6.00;79.60;;;;;;4935262;29;20030;-75
2024/01/02 05:43:02;;;;;;;0.43;0.15;;;6.10;79.20;;;;;;4935214;29;20035;-75
2024/01/02 05:45:28;;;;;;;1.55;0.30;;;6.10;78.40;;;;;;4935353;29;20020;-75
2024/01/02 05:47:54;;;;;;;0.10;0.10;;;6.20;78.00;;;;;;4933709;29;20078;-75
2024/01/02 05:50:19;;;;;;;0.15;0.10;;;6.20;77.40;;;;;;4935143;29;20039;-75
2024/01/02 05:52:46;;;;;;;0.45;0.20;;;6.20;78.40;;;;;;4935371;29;20035;-75
2024/01/02 05:55:11;;;;;;;0.30;0.10;;;6.20;78.50;;;;;;4938783;29;20048;-76
2024/01/02 05:57:37;;;;;;;1.10;0.38;;;6.20;78.30;;;;;;4938766;29;20078;-75
2024/01/02 06:00:03;;;;;;;0.30;0.20;;;6.20;78.40;;;;;;4938780;29;20020;-75
2024/01/02 06:02:28;;;;;;;0.10;0.10;;;6.20;78.10;;;;;;4938650;29;20102;-75
2024/01/02 06:04:54;;;;;;;0.13;0.10;;;6.20;78.50;;;;;;4938651;29;20051;-75
2024/01/02 06:07:19;;;;;;;0.70;0.38;;;6.20;79.30;;;;;;4921298;29;20109;-76
2024/01/02 06:09:45;;;;;;;0.13;0.10;;;6.20;79.00;;;;;;4938473;29;20074;-76
2024/01/02 06:12:10;;;;;;;0.52;0.13;;;6.20;79.30;;;;;;4938507;29;20024;-76
2024/01/02 06:14:37;;;;;;;0.75;0.25;;;6.20;79.00;;;;;;4938473;29;20079;-75
2024/01/02 06:17:03;;;;;;;0.10;0.10;;;6.20;79.00;;;;;;4938403;29;20024;-76
2024/01/02 06:19:29;;;;;;;0.38;0.10;;;6.30;79.50;;;;;;4922591;29;20047;-77
2024/01/02 06:21:55;;;;;;;1.65;0.20;;;6.30;78.80;;;;;;4938306;29;20490;-76
2024/01/02 06:24:20;;;;;;;0.22;0.20;;;6.40;79.20;;;;;;4938312;29;20031;-77
2024/01/02 06:26:46;;;;;;;1.77;0.28;;;6.40;78.90;;;;;;4936918;29;20070;-76
2024/01/02 06:29:11;;;;;;;0.20;0.10;;;6.40;78.30;;;;;;4938088;29;20036;-76
2024/01/02 06:31:37;;;;;;;0.00;0.00;;;6.40;78.30;;;;;;4938134;29;20389;-76
2024/01/02 06:34:02;;;;;;;0.32;0.20;;;6.50;78.20;;;;;;4936715;29;20027;-76
2024/01/02 06:36:29;;;;;;;0.20;0.10;;;6.50;77.90;;;;;;4936847;29;20059;-76
2024/01/02 06:38:54;;;;;;;0.20;0.10;;;6.60;78.10;;;;;;4938058;29;20023;-76
2024/01/02 06:41:20;;;;;;;0.10;0.10;;;6.60;78.40;;;;;;4937970;29;20039;-76
2024/01/02 06:43:45;;;;;;;0.20;0.10;;;6.60;78.30;;;;;;4938017;29;20056;-76
2024/01/02 06:46:14;;;;;;;0.10;0.10;;;6.70;78.80;;;;;;4936747;29;20066;-75
2024/01/02 06:48:43;;;;;;;0.20;0.10;;;6.70;78.80;;;;;;4937874;29;20067;-76
2024/01/02 06:51:09;;;;;;;0.10;0.10;;;6.70;79.00;;;;;;4937942;29;20064;-76
2024/01/02 06:53:34;;;;;;;0.13;0.10;;;6.80;78.70;;;;;;4937633;29;20031;-75
2024/01/02 06:56:00;;;;;;;0.00;0.00;;;6.70;78.70;;;;;;4937748;29;20039;-75
2024/01/02 06:58:25;;;;;;;0.40;0.20;;;6.70;79.00;;;;;;4937954;29;20042;-75
2024/01/02 07:00:51;;;;;;;0.22;0.10;;;6.80;78.50;;;;;;4937774;29;20078;-75
2024/01/02 07:03:18;;;;;;;1.85;0.10;;;6.90;78.20;;;;;;4937536;29;20115;-75
2024/01/02 07:05:43;;;;;;;0.00;0.00;;;6.90;78.10;;;;;;4919439;29;20370;-75
2024/01/02 07:08:10;;;;;;;0.25;0.10;;;6.90;78.30;;;;;;4937340;29;20106;-75
2024/01/02 07:10:35;;;;;;;0.13;0.10;;;6.90;77.90;;;;;;4937357;29;20051;-75
2024/01/02 07:13:01;;;;;;;0.10;0.10;;;7.00;77.40;;;;;;4937134;29;20115;-75
2024/01/02 07:15:26;;;;;;;0.35;0.10;;;6.90;77.70;;;;;;4935900;29;20034;-75
2024/01/02 07:17:52;;;;;;;0.20;0.20;;;7.00;77.60;;;;;;4937399;29;20432;-75
2024/01/02 07:20:19;;;;;;;0.20;0.10;;;7.00;77.80;;;;;;4936133;29;20473;-75
2024/01/02 07:22:45;;;;;;;0.10;0.10;;;7.00;77.50;;;;;;4937304;29;20110;-75
2024/01/02 07:25:12;;;;;;;0.57;0.15;;;7.00;77.30;;;;;;4937119;29;20167;-76
2024/01/02 07:27:37;;;;;;;0.25;0.20;;;7.00;77.30;;;;;;4937085;29;20035;-76
2024/01/02 07:30:04;;;;;;;1.40;0.22;;;7.10;77.50;;;;;;4937516;29;20538;-76
2024/01/02 07:32:30;;;;;;;0.25;0.13;;;7.00;77.20;;;;;;4937544;29;20027;-75
2024/01/02 07:34:55;;;;;;;0.30;0.20;;;7.10;77.30;;;;;;4937546;29;20031;-75
2024/01/02 07:37:21;;;;;;;0.65;0.15;;;7.10;77.70;;;;;;4919964;29;20024;-75
2024/01/02 07:39:46;;;;;;;0.40;0.17;;;7.10;77.50;;;;;;4937023;29;20019;-76
2024/01/02 07:42:13;;;;;;;0.43;0.20;;;7.10;77.20;;;;;;4937118;29;20039;-76
2024/01/02 07:44:38;;;;;;;0.47;0.10;;;7.20;77.30;;;;;;4937094;29;20028;-75
2024/01/02 07:47:04;;;;;;;0.68;0.17;;;7.10;77.40;;;;;;4937021;29;20106;-76
2024/01/02 07:49:29;;;;;;;0.80;0.30;;;7.10;77.50;;;;;;4936920;29;20134;-76
2024/01/02 07:51:55;;;;;;;0.45;0.25;;;7.10;77.40;;;;;;4936822;29;20032;-75
2024/01/02 07:54:21;;;;;;;0.08;0.08;;;7.20;76.60;;;;;;4936744;29;20031;-76
2024/01/02 07:56:46;;;;;;;0.10;0.10;;;7.20;76.80;;;;;;4936797;29;20074;-76
2024/01/02 07:59:15;;;;;;;0.00;0.00;;;7.20;76.60;;;;;;4936753;29;20074;-75
2024/01/02 08:01:41;;;;;;;0.10;0.10;;;7.20;76.90;;;;;;4936715;29;20488;-75
2024/01/02 08:04:06;;;;;;;0.43;0.30;;;7.30;76.70;;;;;;4936621;29;20069;-75
2024/01/02 08:06:32;;;;;;;1.85;0.20;;;7.30;77.10;;;;;;4936410;29;20031;-76
2024/01/02 08:08:57;;;;;;;0.20;0.20;;;7.40;77.10;;;;;;4936113;29;20063;-75
2024/01/02 08:11:23;;;;;;;0.10;0.10;;;7.30;78.00;;;;;;4935236;29;20024;-75
2024/01/02 08:13:48;;;;;;;0.10;0.10;;;7.30;78.20;;;;;;4936448;29;20042;-75
2024/01/02 08:16:14;;;;;;;0.10;0.10;;;7.30;76.80;;;;;;4936558;29;20026;-75
2024/01/02 08:18:41;;;;;;;0.77;0.22;;;7.40;77.60;;;;;;4936151;29;20107;-76
2024/01/02 08:21:09;;;;;;;0.10;0.10;;;7.40;78.20;;;;;;4936461;29;20481;-74
2024/01/02 08:23:38;;;;;;;0.20;0.10;;;7.30;77.70;;;;;;4938129;29;20028;-75
2024/01/02 08:26:06;;;;;;;0.20;0.20;;;7.30;79.10;;;;;;4937220;29;20136;-76
2024/01/02 08:28:32;;;;;;;0.10;0.10;;;7.20;79.50;;;;;;4936222;29;20020;-75
2024/01/02 08:30:57;;;;;;;0.65;0.10;;;7.20;79.00;;;;;;4936268;29;20374;-75
2024/01/02 08:33:23;;;;;;;0.00;0.00;;;7.20;79.20;;;;;;4936150;29;20031;-75
2024/01/02 08:35:48;;;;;;;1.48;0.10;;;7.20;80.00;;;;;;4936216;29;20043;-75
2024/01/02 08:38:14;;;;;;;0.10;0.10;;;7.20;80.50;;;;;;4936046;29;20102;-75
2024/01/02 08:40:39;;;;;;;0.10;0.10;;;7.20;80.30;;;;;;4936263;29;20032;-75
2024/01/02 08:43:05;;;;;;;0.10;0.10;;;7.30;79.30;;;;;;4937229;29;20036;-76
2024/01/02 08:45:30;;;;;;;1.27;0.10;;;7.20;80.10;;;;;;4936120;29;20028;-75
2024/01/02 08:47:56;;;;;;;0.35;0.20;;;7.30;80.00;;;;;;4935974;29;20020;-75
2024/01/02 08:50:23;;;;;;;0.40;0.10;;;7.20;80.30;;;;;;4935690;29;20039;-75
2024/01/02 08:52:48;;;;;;;0.32;0.20;;;7.20;80.20;;;;;;4935712;29;20055;-75
2024/01/02 08:55:14;;;;;;;0.20;0.20;;;7.20;80.50;;;;;;4935640;29;20062;-75
2024/01/02 08:57:41;;;;;;;0.40;0.17;;;7.20;80.90;;;;;;4935717;29;20031;-75
2024/01/02 09:00:07;;;;;;;2.83;0.20;;;7.20;81.30;;;;;;4935656;29;20384;-75
2024/01/02 09:02:33;;;;;;;0.45;0.32;;;7.20;80.30;;;;;;4935702;29;20028;-75
2024/01/02 09:04:59;;;;;;;0.98;0.32;;;7.30;80.50;;;;;;4935565;29;20034;-75
2024/01/02 09:07:25;;;;;;;0.30;0.20;;;7.30;80.50;;;;;;4935357;29;20095;-76
2024/01/02 09:09:50;;;;;;;0.17;0.17;;;7.30;80.80;;;;;;4935488;29;20039;-75
2024/01/02 09:12:16;;;;;;;1.63;0.28;;;7.30;80.50;;;;;;4939811;29;20024;-77
2024/01/02 09:14:42;;;;;;;0.25;0.15;;;7.30;80.30;;;;;;4934559;29;20028;-75
2024/01/02 09:17:08;;;;;;;0.30;0.10;;;7.30;81.90;;;;;;4934165;29;20370;-75
2024/01/02 09:19:33;;;;;;;0.00;0.00;;;7.40;80.30;;;;;;4935420;29;20070;-76
2024/01/02 09:21:59;;;;;;;0.32;0.22;;;7.40;81.00;;;;;;4935573;29;20023;-75
2024/01/02 09:24:24;;;;;;;0.20;0.10;;;7.40;81.20;;;;;;4934298;29;20063;-78
2024/01/02 09:26:54;;;;;;;0.10;0.10;;;7.40;80.50;;;;;;4935491;29;20023;-76
2024/01/02 09:29:23;;;;;;;0.10;0.10;;;7.50;80.60;;;;;;4938069;29;20555;-75
2024/01/02 09:31:48;;;;;;;0.63;0.20;;;7.50;80.90;;;;;;4939054;29;20059;-75
2024/01/02 09:34:14;;;;;;;0.30;0.30;;;7.50;80.20;;;;;;4939171;29;20058;-75
2024/01/02 09:36:39;;;;;;;0.10;0.10;;;7.50;80.00;;;;;;4939100;29;20033;-75
2024/01/02 09:39:06;;;;;;;0.52;0.10;;;7.50;80.30;;;;;;4939411;29;20028;-75
2024/01/02 09:42:09;;;;;;;0.30;0.22;;;7.50;80.00;;;;;;4938858;29;20032;-75
2024/01/02 09:45:02;;;;;;;0.10;0.10;;;7.50;80.50;;;;;;4939024;29;20027;-74
2024/01/02 09:48:05;;;;;;;0.40;0.20;;;7.60;80.30;;;;;;4938800;29;20030;-74
2024/01/02 09:50:34;;;;;;;0.10;0.10;;;7.60;79.80;;;;;;4938766;29;20035;-74
2024/01/02 09:53:31;;;;;;;1.17;0.20;;;7.60;81.10;;;;;;4938874;29;20477;-74
2024/01/02 09:56:09;;;;;;;0.22;0.15;;;7.60;80.90;;;;;;4940801;29;20047;-75
2024/01/02 09:58:51;;;;;;;0.95;0.17;;;7.60;80.50;;;;;;4938868;29;20442;-75
2024/01/02 10:01:50;;;;;;;0.10;0.10;;;7.60;80.70;;;;;;4938571;29;20046;-74
2024/01/02 10:04:22;;;;;;;0.32;0.17;;;7.60;81.00;;;;;;4938729;29;20204;-75
2024/01/02 10:07:10;;;;;;;0.20;0.20;;;7.60;80.80;;;;;;4938825;29;20043;-76
2024/01/02 10:09:50;;;;;;;0.08;0.08;;;7.60;81.00;;;;;;4937788;29;20051;-76
2024/01/02 10:12:53;;;;;;;0.52;0.20;;;7.60;80.10;;;;;;4939622;29;20016;-77
2024/01/02 10:15:50;;;;;;;0.25;0.20;;;7.70;80.90;;;;;;4935845;29;20123;-75
2024/01/02 10:18:26;;;;;;;;;;;7.70;79.20;;;;;;4918900;29;20452;-75
2024/01/02 10:21:14;;;;;;;0.32;0.10;;;7.70;79.80;;;;;;4919591;29;19907;-75
2024/01/02 10:23:59;;;;;;;0.10;0.10;;;7.70;79.80;;;;;;4919528;29;20032;-75
2024/01/02 10:26:27;;;;;;;1.00;0.40;;;7.80;79.30;;;;;;4918706;29;20024;-75
2024/01/02 10:29:03;;;;;;;0.32;0.10;;;7.80;79.40;;;;;;4919959;29;20028;-78
2024/01/02 10:31:58;;;;;;;0.10;0.10;;;7.70;80.20;;;;;;4903158;29;20138;-76
2024/01/02 10:34:35;;;;;;;0.10;0.10;;;7.80;79.60;;;;;;4920237;29;20028;-76
2024/01/02 10:37:06;;;;;;;0.95;0.10;;;7.80;80.50;;;;;;4919337;29;20092;-76
2024/01/02 10:39:45;;;;;;;1.17;0.15;;;7.80;80.10;;;;;;4918817;29;20088;-77
2024/01/02 10:43:00;;;;;;;0.10;0.10;;;7.80;79.90;;;;;;4919395;29;20474;-75
2024/01/02 10:45:51;;;;;;;0.43;0.10;;;7.80;80.80;;;;;;4898262;29;20025;-76
2024/01/02 10:48:42;;;;;;;1.17;0.17;;;7.90;80.50;;;;;;4919412;29;20176;-78
2024/01/02 10:51:12;;;;;;;0.22;0.03;;;7.80;79.80;;;;;;4919474;29;20363;-77
2024/01/02 10:53:49;;;;;;;0.10;0.10;;;7.80;79.80;;;;;;4919163;29;20040;-78
2024/01/02 10:56:42;;;;;;;0.75;0.60;;;7.90;80.30;;;;;;4902765;29;20108;-76
2024/01/02 10:59:13;;;;;;;0.00;0.00;;;7.90;79.20;;;;;;4919209;29;20088;-77
2024/01/02 11:01:45;;;;;;;2.13;0.30;;;7.90;79.50;;;;;;4918886;29;20106;-77
2024/01/02 11:04:21;;;;;;;0.10;0.10;;;8.00;79.60;;;;;;4901865;29;20477;-81
2024/01/02 11:06:56;;;;;;;0.20;0.20;;;8.00;78.80;;;;;;4919019;29;20481;-78
2024/01/02 11:09:32;;;;;;;0.22;0.22;;;8.10;79.00;;;;;;4921202;29;20044;-76
2024/01/02 11:11:59;;;;;;;0.20;0.10;;;8.10;77.70;;;;;;4918795;29;20095;-79
2024/01/02 11:14:27;;;;;;;0.10;0.10;;;8.20;78.10;;;;;;4918434;29;20031;-75
2024/01/02 11:16:56;;;;;;;0.85;0.15;;;8.20;78.00;;;;;;4918417;29;20036;-76
2024/01/02 11:19:46;;;;;;;0.60;0.30;;;8.20;77.20;;;;;;4918382;29;20129;-75
2024/01/02 11:22:21;;;;;;;0.20;0.15;;;8.30;78.20;;;;;;4917987;29;20087;-74
2024/01/02 11:25:03;;;;;;;1.45;0.10;;;8.30;77.40;;;;;;4918263;29;20032;-74
2024/01/02 11:27:30;;;;;;;0.45;0.30;;;8.30;77.50;;;;;;4918305;29;20024;-74
2024/01/02 11:30:02;;;;;;;0.20;0.20;;;8.40;77.60;;;;;;4917982;29;20059;-75
2024/01/02 11:32:56;;;;;;;0.13;0.13;;;8.40;76.30;;;;;;4918178;29;20052;-74
2024/01/02 11:35:24;;;;;;;0.20;0.20;;;8.40;77.80;;;;;;4918171;29;20028;-75
2024/01/02 11:38:18;;;;;;;0.10;0.10;;;8.30;77.50;;;;;;4917949;29;20478;-74
2024/01/02 11:41:05;;;;;;;0.10;0.10;;;8.30;77.70;;;;;;4917451;29;20087;-74
2024/01/02 11:43:46;;;;;;;0.10;0.10;;;8.40;76.60;;;;;;4917921;29;20096;-74
2024/01/02 11:46:14;;;;;;;0.45;0.20;;;8.40;77.90;;;;;;4917693;29;20087;-75
2024/01/02 11:49:07;;;;;;;0.17;0.10;;;8.40;76.90;;;;;;4917602;29;20103;-74
2024/01/02 11:51:38;;;;;;;0.90;0.25;;;8.30;77.50;;;;;;4917154;29;20032;-74
2024/01/02 11:54:15;;;;;;;0.10;0.10;;;8.40;77.20;;;;;;4917407;29;20434;-76
2024/01/02 11:56:42;;;;;;;0.10;0.10;;;8.50;77.50;;;;;;4917605;29;20496;-76
2024/01/02 11:59:24;;;;;;;0.20;0.20;;;8.50;76.90;;;;;;4900524;29;20036;-73
2024/01/02 12:02:08;;;;;;;0.28;0.17;;;8.60;76.30;;;;;;4917553;29;20160;-76
2024/01/02 12:04:56;;;;;;;1.17;0.20;;;8.60;75.70;;;;;;4917286;29;20024;-80
2024/01/02 12:07:25;;;;;;;0.35;0.20;;;8.60;76.20;;;;;;4917336;29;20027;-75
2024/01/02 12:09:52;;;;;;;0.15;0.10;;;8.60;75.60;;;;;;4917195;29;20040;-77
2024/01/02 12:12:37;;;;;;;0.40;0.40;;;8.60;74.70;;;;;;4917308;29;20103;-77
2024/01/02 12:15:12;;;;;;;0.35;0.10;;;8.60;75.50;;;;;;4917343;29;20032;-80
2024/01/02 12:17:58;;;;;;;0.20;0.20;;;8.70;76.30;;;;;;4917385;29;20021;-75
2024/01/02 12:20:23;;;;;;;;;;;8.70;75.50;;;;;;4918210;29;20024;-76
2024/01/02 12:22:49;;;;;;;0.00;0.00;;;8.70;75.30;;;;;;4919093;29;20395;-77
2024/01/02 12:25:16;;;;;;;0.00;0.00;;;8.70;74.90;;;;;;4917257;29;20039;-77
2024/01/02 12:27:45;;;;;;;0.10;0.10;;;8.60;76.30;;;;;;4917460;29;20077;-76
2024/01/02 12:30:21;;;;;;;0.17;0.17;;;8.60;75.80;;;;;;4916899;29;20043;-76
2024/01/02 12:33:00;;;;;;;0.30;0.20;;;8.60;75.40;;;;;;4917125;29;20076;-76
2024/01/02 12:35:36;;;;;;;0.20;0.15;;;8.50;76.80;;;;;;4899787;29;20028;-75
2024/01/02 12:38:15;;;;;;;0.20;0.15;;;8.50;76.20;;;;;;4916971;29;20466;-76
2024/01/02 12:40:48;;;;;;;0.20;0.10;;;8.50;76.20;;;;;;4917563;29;20028;-76
2024/01/02 12:43:29;;;;;;;0.10;0.10;;;8.50;76.30;;;;;;4917542;29;20028;-77
2024/01/02 12:46:13;;;;;;;0.10;0.10;;;8.50;75.80;;;;;;4917368;29;20112;-77
2024/01/02 12:49:05;;;;;;;0.40;0.20;;;8.50;76.30;;;;;;4917088;29;20450;-76
2024/01/02 12:51:35;;;;;;;0.35;0.10;;;8.50;76.70;;;;;;4916596;29;20052;-80
2024/01/02 12:54:01;;;;;;;0.57;0.20;;;8.50;76.50;;;;;;4916656;29;20028;-74
2024/01/02 12:56:32;;;;;;;0.20;0.20;;;8.50;75.80;;;;;;4916771;29;20032;-78
2024/01/02 12:59:05;;;;;;;0.00;0.00;;;8.50;76.30;;;;;;4899907;29;20038;-76
2024/01/02 13:01:32;;;;;;;0.10;0.10;;;8.50;76.10;;;;;;4916702;29;20028;-77
2024/01/02 13:03:59;;;;;;;0.10;0.10;;;8.60;75.70;;;;;;4898831;29;20032;-76
2024/01/02 13:06:28;;;;;;;0.10;0.10;;;8.50;75.50;;;;;;4916806;29;20021;-75